sensor_id;sensor_type;location;lat;lon;timestamp;pressure;altitude;pressure_sealevel;temperature;humidity
79077;BME280;68477;42.698;23.342;2023-09-08T00:00:56;95911.38;;;19.14;70.37
79077;BME280;68477;42.698;23.342;2023-09-08T00:03:21;95914.47;;;19.11;70.57
79077;BME280;68477;42.698;23.342;2023-09-08T00:05:46;95926.59;;;19.00;71.55
79077;BME280;68477;42.698;23.342;2023-09-08T00:08:12;95913.47;;;18.99;71.67
79077;BME280;68477;42.698;23.342;2023-09-08T00:10:37;95915.09;;;19.00;71.44
79077;BME280;68477;42.698;23.342;2023-09-08T00:13:03;95916.13;;;19.05;71.09
79077;BME280;68477;42.698;23.342;2023-09-08T00:15:28;95917.78;;;19.06;71.10
79077;BME280;68477;42.698;23.342;2023-09-08T00:17:54;95913.47;;;18.99;71.34
79077;BME280;68477;42.698;23.342;2023-09-08T00:20:19;95913.47;;;18.99;70.53
79077;BME280;68477;42.698;23.342;2023-09-08T00:22:44;95914.88;;;19.14;70.81
79077;BME280;68477;42.698;23.342;2023-09-08T00:25:10;95917.59;;;18.95;71.21
79077;BME280;68477;42.698;23.342;2023-09-08T00:27:35;95923.75;;;18.95;71.13
79077;BME280;68477;42.698;23.342;2023-09-08T00:30:01;95915.34;;;18.85;71.25
79077;BME280;68477;42.698;23.342;2023-09-08T00:32:27;95920.06;;;18.83;70.46
79077;BME280;68477;42.698;23.342;2023-09-08T00:34:52;95924.38;;;18.77;69.93
79077;BME280;68477;42.698;23.342;2023-09-08T00:37:18;95910.25;;;18.70;69.75
79077;BME280;68477;42.698;23.342;2023-09-08T00:39:43;95911.44;;;18.68;69.92
79077;BME280;68477;42.698;23.342;2023-09-08T00:42:10;95907.75;;;18.69;69.89
79077;BME280;68477;42.698;23.342;2023-09-08T00:44:35;95910.25;;;18.70;69.49
79077;BME280;68477;42.698;23.342;2023-09-08T00:47:01;95909.59;;;18.68;69.94
79077;BME280;68477;42.698;23.342;2023-09-08T00:49:26;95908.78;;;18.68;69.86
79077;BME280;68477;42.698;23.342;2023-09-08T00:51:53;95908.78;;;18.68;68.34
79077;BME280;68477;42.698;23.342;2023-09-08T00:54:19;95905.31;;;18.67;69.51
79077;BME280;68477;42.698;23.342;2023-09-08T00:56:46;95910.22;;;18.77;69.37
79077;BME280;68477;42.698;23.342;2023-09-08T00:59:13;95913.91;;;18.76;69.27
79077;BME280;68477;42.698;23.342;2023-09-08T01:01:38;95904.28;;;18.68;69.52
79077;BME280;68477;42.698;23.342;2023-09-08T01:04:04;95910.84;;;18.66;69.45
79077;BME280;68477;42.698;23.342;2023-09-08T01:06:30;95910.84;;;18.72;69.16
79077;BME280;68477;42.698;23.342;2023-09-08T01:08:57;95913.88;;;18.56;69.36
79077;BME280;68477;42.698;23.342;2023-09-08T01:11:23;95910.63;;;18.60;69.34
79077;BME280;68477;42.698;23.342;2023-09-08T01:13:49;95907.16;;;18.47;69.84
79077;BME280;68477;42.698;23.342;2023-09-08T01:16:14;95905.91;;;18.43;69.58
79077;BME280;68477;42.698;23.342;2023-09-08T01:18:40;95898.75;;;18.50;69.56
79077;BME280;68477;42.698;23.342;2023-09-08T01:23:52;95899.56;;;18.50;69.08
79077;BME280;68477;42.698;23.342;2023-09-08T01:26:25;95902.63;;;18.47;68.76
79077;BME280;68477;42.698;23.342;2023-09-08T01:28:53;95898.72;;;18.43;68.78
79077;BME280;68477;42.698;23.342;2023-09-08T01:31:19;95900.38;;;18.51;68.02
79077;BME280;68477;42.698;23.342;2023-09-08T01:33:45;95901.00;;;18.46;68.24
79077;BME280;68477;42.698;23.342;2023-09-08T01:36:11;95891.78;;;18.49;68.04
79077;BME280;68477;42.698;23.342;2023-09-08T01:38:36;95890.75;;;18.50;67.24
79077;BME280;68477;42.698;23.342;2023-09-08T01:41:02;95886.44;;;18.49;67.79
79077;BME280;68477;42.698;23.342;2023-09-08T01:43:27;95884.81;;;18.48;67.93
79077;BME280;68477;42.698;23.342;2023-09-08T01:45:53;95892.38;;;18.44;67.72
79077;BME280;68477;42.698;23.342;2023-09-08T01:48:20;95890.75;;;18.50;68.19
79077;BME280;68477;42.698;23.342;2023-09-08T01:50:46;95894.63;;;18.41;68.91
79077;BME280;68477;42.698;23.342;2023-09-08T01:53:12;95895.69;;;18.46;68.31
79077;BME280;68477;42.698;23.342;2023-09-08T01:55:37;95888.69;;;18.32;68.80
79077;BME280;68477;42.698;23.342;2023-09-08T01:58:03;95890.31;;;18.33;68.89
79077;BME280;68477;42.698;23.342;2023-09-08T02:00:28;95885.00;;;18.33;68.98
79077;BME280;68477;42.698;23.342;2023-09-08T02:02:55;95891.56;;;18.30;69.40
79077;BME280;68477;42.698;23.342;2023-09-08T02:05:20;95885.22;;;18.25;69.58
79077;BME280;68477;42.698;23.342;2023-09-08T02:07:46;95882.13;;;18.15;69.65
79077;BME280;68477;42.698;23.342;2023-09-08T02:10:11;95880.91;;;18.17;69.72
79077;BME280;68477;42.698;23.342;2023-09-08T02:12:37;95881.50;;;18.06;70.79
79077;BME280;68477;42.698;23.342;2023-09-08T02:15:03;95873.94;;;18.10;70.47
79077;BME280;68477;42.698;23.342;2023-09-08T02:17:30;95878.03;;;18.19;70.50
79077;BME280;68477;42.698;23.342;2023-09-08T02:19:55;95877.63;;;18.22;70.49
79077;BME280;68477;42.698;23.342;2023-09-08T02:22:21;95878.22;;;17.97;71.34
79077;BME280;68477;42.698;23.342;2023-09-08T02:24:46;95874.31;;;17.87;71.73
79077;BME280;68477;42.698;23.342;2023-09-08T02:27:11;95870.84;;;17.93;72.04
79077;BME280;68477;42.698;23.342;2023-09-08T02:29:37;95871.66;;;17.93;72.53
79077;BME280;68477;42.698;23.342;2023-09-08T02:32:03;95872.88;;;17.97;71.56
79077;BME280;68477;42.698;23.342;2023-09-08T02:34:28;95871.88;;;17.98;72.00
79077;BME280;68477;42.698;23.342;2023-09-08T02:36:54;95875.97;;;18.08;72.46
79077;BME280;68477;42.698;23.342;2023-09-08T02:39:20;95873.31;;;18.08;72.45
79077;BME280;68477;42.698;23.342;2023-09-08T02:41:48;95875.75;;;17.89;72.60
79077;BME280;68477;42.698;23.342;2023-09-08T02:44:14;95868.56;;;17.83;73.02
79077;BME280;68477;42.698;23.342;2023-09-08T02:46:39;95877.19;;;17.98;73.10
79077;BME280;68477;42.698;23.342;2023-09-08T02:49:05;95872.09;;;18.10;72.36
79077;BME280;68477;42.698;23.342;2023-09-08T02:51:31;95881.09;;;18.02;73.43
79077;BME280;68477;42.698;23.342;2023-09-08T02:53:56;95874.31;;;17.87;74.13
79077;BME280;68477;42.698;23.342;2023-09-08T02:56:22;95862.84;;;17.80;74.46
79077;BME280;68477;42.698;23.342;2023-09-08T02:58:47;95862.41;;;17.69;74.13
79077;BME280;68477;42.698;23.342;2023-09-08T03:01:14;95858.88;;;17.62;74.91
79077;BME280;68477;42.698;23.342;2023-09-08T03:03:41;95854.34;;;17.50;75.13
79077;BME280;68477;42.698;23.342;2023-09-08T03:06:07;95854.97;;;17.52;75.99
79077;BME280;68477;42.698;23.342;2023-09-08T03:08:32;95851.66;;;17.36;76.14
79077;BME280;68477;42.698;23.342;2023-09-08T03:10:59;95854.09;;;17.38;76.59
79077;BME280;68477;42.698;23.342;2023-09-08T03:13:25;95855.53;;;17.40;76.59
79077;BME280;68477;42.698;23.342;2023-09-08T03:15:51;95848.81;;;17.44;76.09
79077;BME280;68477;42.698;23.342;2023-09-08T03:18:17;95853.53;;;17.49;76.03
79077;BME280;68477;42.698;23.342;2023-09-08T03:20:42;95860.44;;;17.43;76.49
79077;BME280;68477;42.698;23.342;2023-09-08T03:23:08;95856.72;;;17.25;77.22
79077;BME280;68477;42.698;23.342;2023-09-08T03:25:34;95856.31;;;17.28;77.79
79077;BME280;68477;42.698;23.342;2023-09-08T03:27:59;95855.13;;;17.37;76.52
79077;BME280;68477;42.698;23.342;2023-09-08T03:30:25;95860.41;;;17.30;77.67
79077;BME280;68477;42.698;23.342;2023-09-08T03:32:50;95852.88;;;17.34;76.71
79077;BME280;68477;42.698;23.342;2023-09-08T03:35:16;95861.19;;;17.17;78.03
79077;BME280;68477;42.698;23.342;2023-09-08T03:37:41;95858.31;;;17.12;78.23
79077;BME280;68477;42.698;23.342;2023-09-08T03:40:07;95862.09;;;16.97;78.89
79077;BME280;68477;42.698;23.342;2023-09-08T03:42:33;95854.31;;;16.88;78.88
79077;BME280;68477;42.698;23.342;2023-09-08T03:45:00;95850.91;;;17.01;79.08
79077;BME280;68477;42.698;23.342;2023-09-08T03:47:25;95854.00;;;17.11;78.22
79077;BME280;68477;42.698;23.342;2023-09-08T03:49:51;95851.97;;;17.20;77.84
79077;BME280;68477;42.698;23.342;2023-09-08T03:52:16;95855.66;;;17.12;78.24
79077;BME280;68477;42.698;23.342;2023-09-08T03:54:42;95856.72;;;17.25;78.08
79077;BME280;68477;42.698;23.342;2023-09-08T03:57:07;95865.75;;;16.89;79.04
79077;BME280;68477;42.698;23.342;2023-09-08T03:59:33;95859.94;;;17.13;78.34
79077;BME280;68477;42.698;23.342;2023-09-08T04:01:58;95859.78;;;17.22;77.77
79077;BME280;68477;42.698;23.342;2023-09-08T04:04:23;95858.16;;;17.27;78.08
79077;BME280;68477;42.698;23.342;2023-09-08T04:06:49;95861.84;;;17.26;77.70
79077;BME280;68477;42.698;23.342;2023-09-08T04:09:15;95868.69;;;17.01;79.39
79077;BME280;68477;42.698;23.342;2023-09-08T04:11:40;95863.00;;;17.10;78.53
79077;BME280;68477;42.698;23.342;2023-09-08T04:14:06;95859.69;;;17.02;79.33
79077;BME280;68477;42.698;23.342;2023-09-08T04:16:31;95857.19;;;16.94;79.83
79077;BME280;68477;42.698;23.342;2023-09-08T04:18:57;95858.88;;;17.01;79.66
79077;BME280;68477;42.698;23.342;2023-09-08T04:21:22;95853.41;;;17.16;78.91
79077;BME280;68477;42.698;23.342;2023-09-08T04:23:48;95851.53;;;17.10;79.22
79077;BME280;68477;42.698;23.342;2023-09-08T04:26:13;95859.38;;;17.25;79.00
79077;BME280;68477;42.698;23.342;2023-09-08T04:28:39;95865.75;;;17.37;78.46
79077;BME280;68477;42.698;23.342;2023-09-08T04:31:06;95869.00;;;17.26;78.42
79077;BME280;68477;42.698;23.342;2023-09-08T04:33:31;95870.63;;;17.27;78.88
79077;BME280;68477;42.698;23.342;2023-09-08T04:35:57;95872.47;;;17.26;79.18
79077;BME280;68477;42.698;23.342;2023-09-08T04:38:22;95881.47;;;17.25;79.44
79077;BME280;68477;42.698;23.342;2023-09-08T04:40:48;95884.94;;;17.32;79.17
79077;BME280;68477;42.698;23.342;2023-09-08T04:43:13;95879.06;;;17.37;79.49
79077;BME280;68477;42.698;23.342;2023-09-08T04:45:39;95881.72;;;17.37;78.83
79077;BME280;68477;42.698;23.342;2023-09-08T04:48:04;95882.13;;;17.40;78.41
79077;BME280;68477;42.698;23.342;2023-09-08T04:50:30;95871.66;;;17.26;79.80
79077;BME280;68477;42.698;23.342;2023-09-08T04:52:55;95869.41;;;17.23;79.96
79077;BME280;68477;42.698;23.342;2023-09-08T04:55:21;95875.22;;;17.53;78.62
79077;BME280;68477;42.698;23.342;2023-09-08T04:57:46;95877.50;;;17.56;78.37
79077;BME280;68477;42.698;23.342;2023-09-08T05:00:15;95879.13;;;17.57;77.77
79077;BME280;68477;42.698;23.342;2023-09-08T05:02:40;95879.97;;;17.57;78.63
79077;BME280;68477;42.698;23.342;2023-09-08T05:05:06;95878.31;;;17.56;78.34
79077;BME280;68477;42.698;23.342;2023-09-08T05:07:31;95875.88;;;17.61;78.29
79077;BME280;68477;42.698;23.342;2023-09-08T05:09:57;95880.47;;;17.94;76.03
79077;BME280;68477;42.698;23.342;2023-09-08T05:12:22;95875.34;;;17.99;76.61
79077;BME280;68477;42.698;23.342;2023-09-08T05:14:48;95879.84;;;17.98;77.03
79077;BME280;68477;42.698;23.342;2023-09-08T05:17:13;95880.66;;;17.99;76.80
79077;BME280;68477;42.698;23.342;2023-09-08T05:19:38;95876.19;;;18.19;75.97
79077;BME280;68477;42.698;23.342;2023-09-08T05:22:05;95873.13;;;18.36;75.21
79077;BME280;68477;42.698;23.342;2023-09-08T05:24:31;95881.72;;;18.51;74.76
79077;BME280;68477;42.698;23.342;2023-09-08T05:26:56;95880.28;;;18.55;72.29
79077;BME280;68477;42.698;23.342;2023-09-08T05:29:22;95873.09;;;18.55;71.19
79077;BME280;68477;42.698;23.342;2023-09-08T05:31:48;95877.00;;;18.79;69.75
79077;BME280;68477;42.698;23.342;2023-09-08T05:34:13;95871.66;;;18.79;70.81
79077;BME280;68477;42.698;23.342;2023-09-08T05:36:38;95882.50;;;19.04;68.66
79077;BME280;68477;42.698;23.342;2023-09-08T05:39:05;95882.47;;;19.17;68.50
79077;BME280;68477;42.698;23.342;2023-09-08T05:41:30;95877.09;;;19.24;68.74
79077;BME280;68477;42.698;23.342;2023-09-08T05:43:57;95880.13;;;19.41;68.05
79077;BME280;68477;42.698;23.342;2023-09-08T05:46:22;95882.09;;;19.59;66.35
79077;BME280;68477;42.698;23.342;2023-09-08T05:48:48;95890.09;;;19.65;66.70
79077;BME280;68477;42.698;23.342;2023-09-08T05:51:14;95894.25;;;19.48;66.46
79077;BME280;68477;42.698;23.342;2023-09-08T05:53:40;95888.47;;;19.58;66.74
79077;BME280;68477;42.698;23.342;2023-09-08T05:56:06;95889.38;;;19.83;66.08
79077;BME280;68477;42.698;23.342;2023-09-08T05:58:32;95887.13;;;19.80;65.51
79077;BME280;68477;42.698;23.342;2023-09-08T06:00:59;95895.09;;;19.87;65.05
79077;BME280;68477;42.698;23.342;2023-09-08T06:03:25;95886.28;;;19.86;62.18
79077;BME280;68477;42.698;23.342;2023-09-08T06:05:51;95895.81;;;20.07;60.43
79077;BME280;68477;42.698;23.342;2023-09-08T06:08:17;95899.16;;;20.27;59.81
79077;BME280;68477;42.698;23.342;2023-09-08T06:10:42;95895.84;;;20.32;58.56
79077;BME280;68477;42.698;23.342;2023-09-08T06:13:07;95889.47;;;20.58;57.08
79077;BME280;68477;42.698;23.342;2023-09-08T06:15:33;95893.16;;;20.63;57.21
79077;BME280;68477;42.698;23.342;2023-09-08T06:17:59;95886.41;;;20.79;57.49
79077;BME280;68477;42.698;23.342;2023-09-08T06:20:24;95892.81;;;20.78;57.70
79077;BME280;68477;42.698;23.342;2023-09-08T06:22:50;95891.63;;;20.74;56.14
79077;BME280;68477;42.698;23.342;2023-09-08T06:25:15;95892.22;;;20.76;55.16
79077;BME280;68477;42.698;23.342;2023-09-08T06:27:41;95896.50;;;20.77;55.38
79077;BME280;68477;42.698;23.342;2023-09-08T06:30:07;95895.28;;;20.98;53.87
79077;BME280;68477;42.698;23.342;2023-09-08T06:32:33;95901.59;;;20.85;55.12
79077;BME280;68477;42.698;23.342;2023-09-08T06:34:58;95907.63;;;21.17;53.65
79077;BME280;68477;42.698;23.342;2023-09-08T06:37:24;95910.63;;;21.46;52.40
79077;BME280;68477;42.698;23.342;2023-09-08T06:39:49;95913.28;;;21.09;51.45
79077;BME280;68477;42.698;23.342;2023-09-08T06:42:15;95918.31;;;21.17;50.88
79077;BME280;68477;42.698;23.342;2023-09-08T06:44:40;95914.97;;;21.04;51.51
79077;BME280;68477;42.698;23.342;2023-09-08T06:47:05;95913.94;;;21.23;51.90
79077;BME280;68477;42.698;23.342;2023-09-08T06:49:33;95904.47;;;21.64;50.47
79077;BME280;68477;42.698;23.342;2023-09-08T06:51:59;95904.66;;;21.80;50.43
79077;BME280;68477;42.698;23.342;2023-09-08T06:54:24;95907.59;;;22.09;49.60
79077;BME280;68477;42.698;23.342;2023-09-08T06:56:50;95910.53;;;21.71;50.33
79077;BME280;68477;42.698;23.342;2023-09-08T06:59:15;95907.50;;;21.49;49.36
79077;BME280;68477;42.698;23.342;2023-09-08T07:01:42;95910.47;;;21.77;48.92
79077;BME280;68477;42.698;23.342;2023-09-08T07:04:07;95907.44;;;21.86;48.46
79077;BME280;68477;42.698;23.342;2023-09-08T07:06:33;95911.28;;;22.08;47.39
79077;BME280;68477;42.698;23.342;2023-09-08T07:09:00;95916.50;;;22.21;47.08
79077;BME280;68477;42.698;23.342;2023-09-08T07:11:25;95912.88;;;22.27;46.42
79077;BME280;68477;42.698;23.342;2023-09-08T07:13:51;95917.69;;;22.37;44.66
79077;BME280;68477;42.698;23.342;2023-09-08T07:16:17;95909.59;;;22.67;43.03
79077;BME280;68477;42.698;23.342;2023-09-08T07:18:42;95904.94;;;22.86;42.79
79077;BME280;68477;42.698;23.342;2023-09-08T07:21:09;95908.56;;;23.27;42.10
79077;BME280;68477;42.698;23.342;2023-09-08T07:23:34;95911.38;;;22.97;41.59
79077;BME280;68477;42.698;23.342;2023-09-08T07:26:01;95912.72;;;22.76;42.33
79077;BME280;68477;42.698;23.342;2023-09-08T07:28:27;95910.09;;;22.99;42.45
79077;BME280;68477;42.698;23.342;2023-09-08T07:30:52;95905.19;;;23.08;42.07
79077;BME280;68477;42.698;23.342;2023-09-08T07:33:18;95902.59;;;23.24;42.10
79077;BME280;68477;42.698;23.342;2023-09-08T07:35:44;95909.56;;;23.49;42.24
79077;BME280;68477;42.698;23.342;2023-09-08T07:38:10;95909.22;;;23.45;42.24
79077;BME280;68477;42.698;23.342;2023-09-08T07:40:35;95904.44;;;23.59;41.12
79077;BME280;68477;42.698;23.342;2023-09-08T07:43:01;95898.69;;;23.44;41.49
79077;BME280;68477;42.698;23.342;2023-09-08T07:45:27;95897.97;;;24.00;40.03
79077;BME280;68477;42.698;23.342;2023-09-08T07:47:53;95904.25;;;24.06;41.11
79077;BME280;68477;42.698;23.342;2023-09-08T07:50:23;95913.97;;;24.35;39.88
79077;BME280;68477;42.698;23.342;2023-09-08T07:52:50;95902.09;;;24.20;39.04
79077;BME280;68477;42.698;23.342;2023-09-08T07:55:16;95901.84;;;23.64;39.90
79077;BME280;68477;42.698;23.342;2023-09-08T07:57:43;95896.53;;;23.81;40.19
79077;BME280;68477;42.698;23.342;2023-09-08T08:00:11;95896.47;;;23.64;39.98
79077;BME280;68477;42.698;23.342;2023-09-08T08:02:43;95897.28;;;23.65;40.88
79077;BME280;68477;42.698;23.342;2023-09-08T08:05:11;95906.22;;;24.10;38.95
79077;BME280;68477;42.698;23.342;2023-09-08T08:07:38;95893.75;;;24.33;37.84
79077;BME280;68477;42.698;23.342;2023-09-08T08:10:05;95896.38;;;24.45;37.27
79077;BME280;68477;42.698;23.342;2023-09-08T08:12:31;95890.25;;;24.66;37.50
79077;BME280;68477;42.698;23.342;2023-09-08T08:14:56;95890.16;;;24.78;37.58
79077;BME280;68477;42.698;23.342;2023-09-08T08:17:21;95887.09;;;24.69;37.39
79077;BME280;68477;42.698;23.342;2023-09-08T08:19:48;95884.69;;;23.94;38.51
79077;BME280;68477;42.698;23.342;2023-09-08T08:22:14;95893.06;;;23.97;39.43
79077;BME280;68477;42.698;23.342;2023-09-08T08:24:40;95895.78;;;23.69;40.71
79077;BME280;68477;42.698;23.342;2023-09-08T08:27:06;95887.50;;;23.47;41.23
79077;BME280;68477;42.698;23.342;2023-09-08T08:29:31;95884.81;;;23.87;40.45
79077;BME280;68477;42.698;23.342;2023-09-08T08:31:58;95881.44;;;23.40;41.24
79077;BME280;68477;42.698;23.342;2023-09-08T08:34:24;95881.16;;;23.53;41.58
79077;BME280;68477;42.698;23.342;2023-09-08T08:36:49;95884.50;;;23.84;39.16
79077;BME280;68477;42.698;23.342;2023-09-08T08:39:14;95877.53;;;23.71;40.34
79077;BME280;68477;42.698;23.342;2023-09-08T08:41:40;95879.53;;;23.64;39.57
79077;BME280;68477;42.698;23.342;2023-09-08T08:44:07;95875.22;;;23.51;39.92
79077;BME280;68477;42.698;23.342;2023-09-08T08:46:34;95882.47;;;23.62;39.93
79077;BME280;68477;42.698;23.342;2023-09-08T08:49:01;95877.00;;;23.45;39.95
79077;BME280;68477;42.698;23.342;2023-09-08T08:51:28;95873.13;;;23.53;39.84
79077;BME280;68477;42.698;23.342;2023-09-08T08:53:54;95866.97;;;23.41;40.07
79077;BME280;68477;42.698;23.342;2023-09-08T08:56:20;95875.84;;;23.41;41.07
79077;BME280;68477;42.698;23.342;2023-09-08T08:58:46;95868.91;;;23.57;39.71
79077;BME280;68477;42.698;23.342;2023-09-08T09:01:12;95865.56;;;23.38;40.74
79077;BME280;68477;42.698;23.342;2023-09-08T09:03:39;95864.63;;;23.33;40.61
79077;BME280;68477;42.698;23.342;2023-09-08T09:06:05;95864.06;;;23.31;40.64
79077;BME280;68477;42.698;23.342;2023-09-08T09:08:31;95871.19;;;23.37;40.37
79077;BME280;68477;42.698;23.342;2023-09-08T09:10:57;95859.19;;;23.28;41.02
79077;BME280;68477;42.698;23.342;2023-09-08T09:13:22;95875.88;;;23.18;40.79
79077;BME280;68477;42.698;23.342;2023-09-08T09:15:49;95876.03;;;23.11;40.34
79077;BME280;68477;42.698;23.342;2023-09-08T09:18:15;95866.56;;;23.09;40.34
79077;BME280;68477;42.698;23.342;2023-09-08T09:20:41;95869.47;;;23.07;41.21
79077;BME280;68477;42.698;23.342;2023-09-08T09:23:30;95865.88;;;23.13;40.57
79077;BME280;68477;42.698;23.342;2023-09-08T09:25:59;95870.28;;;23.08;40.90
79077;BME280;68477;42.698;23.342;2023-09-08T09:28:25;95869.69;;;23.17;41.43
79077;BME280;68477;42.698;23.342;2023-09-08T09:30:53;95868.72;;;23.47;40.48
79077;BME280;68477;42.698;23.342;2023-09-08T09:33:21;95870.66;;;23.11;41.01
79077;BME280;68477;42.698;23.342;2023-09-08T09:35:52;95864.53;;;23.28;40.84
79077;BME280;68477;42.698;23.342;2023-09-08T09:38:19;95866.66;;;23.26;41.24
79077;BME280;68477;42.698;23.342;2023-09-08T09:40:46;95871.88;;;23.32;41.65
79077;BME280;68477;42.698;23.342;2023-09-08T09:43:14;95870.97;;;23.27;41.21
79077;BME280;68477;42.698;23.342;2023-09-08T09:45:41;95868.19;;;23.73;40.06
79077;BME280;68477;42.698;23.342;2023-09-08T09:48:08;95866.81;;;24.16;39.62
79077;BME280;68477;42.698;23.342;2023-09-08T09:50:41;95862.66;;;24.08;39.85
79077;BME280;68477;42.698;23.342;2023-09-08T09:53:16;95863.97;;;24.23;39.86
79077;BME280;68477;42.698;23.342;2023-09-08T09:55:43;95861.25;;;24.06;39.79
79077;BME280;68477;42.698;23.342;2023-09-08T09:58:10;95860.81;;;23.97;41.14
79077;BME280;68477;42.698;23.342;2023-09-08T10:00:38;95858.00;;;24.04;40.23
79077;BME280;68477;42.698;23.342;2023-09-08T10:03:06;95852.03;;;24.64;39.15
79077;BME280;68477;42.698;23.342;2023-09-08T10:05:32;95861.69;;;25.15;38.03
79077;BME280;68477;42.698;23.342;2023-09-08T10:07:58;95845.84;;;24.63;39.05
79077;BME280;68477;42.698;23.342;2023-09-08T10:10:26;95845.75;;;24.42;39.80
79077;BME280;68477;42.698;23.342;2023-09-08T10:12:54;95841.25;;;24.14;39.96
79077;BME280;68477;42.698;23.342;2023-09-08T10:15:22;95847.38;;;23.97;40.74
79077;BME280;68477;42.698;23.342;2023-09-08T10:17:55;95843.25;;;24.06;40.80
79077;BME280;68477;42.698;23.342;2023-09-08T10:20:23;95840.00;;;24.04;42.19
79077;BME280;68477;42.698;23.342;2023-09-08T10:22:53;95835.41;;;24.33;41.08
79077;BME280;68477;42.698;23.342;2023-09-08T10:25:20;95840.50;;;24.01;40.88
79077;BME280;68477;42.698;23.342;2023-09-08T10:27:47;95837.63;;;24.36;40.57
79077;BME280;68477;42.698;23.342;2023-09-08T10:30:14;95845.63;;;24.20;40.25
79077;BME280;68477;42.698;23.342;2023-09-08T10:32:41;95832.81;;;24.10;40.83
79077;BME280;68477;42.698;23.342;2023-09-08T10:35:08;95835.00;;;23.96;41.30
79077;BME280;68477;42.698;23.342;2023-09-08T10:37:34;95832.16;;;23.86;41.66
79077;BME280;68477;42.698;23.342;2023-09-08T10:40:22;95836.16;;;24.00;41.53
79077;BME280;68477;42.698;23.342;2023-09-08T10:42:47;95827.94;;;23.90;41.61
79077;BME280;68477;42.698;23.342;2023-09-08T10:45:18;95833.06;;;24.08;40.43
79077;BME280;68477;42.698;23.342;2023-09-08T10:50:19;95821.44;;;24.20;40.21
79077;BME280;68477;42.698;23.342;2023-09-08T10:52:45;95835.38;;;24.17;40.29
79077;BME280;68477;42.698;23.342;2023-09-08T10:55:11;95840.81;;;24.22;40.55
79077;BME280;68477;42.698;23.342;2023-09-08T10:57:45;95834.06;;;25.25;38.23
79077;BME280;68477;42.698;23.342;2023-09-08T11:00:11;95829.31;;;25.54;38.19
79077;BME280;68477;42.698;23.342;2023-09-08T11:02:48;95826.13;;;24.96;38.93
79077;BME280;68477;42.698;23.342;2023-09-08T11:05:15;95836.25;;;24.89;38.60
79077;BME280;68477;42.698;23.342;2023-09-08T11:07:42;95826.84;;;24.70;39.24
79077;BME280;68477;42.698;23.342;2023-09-08T11:10:09;95833.59;;;24.56;41.17
79077;BME280;68477;42.698;23.342;2023-09-08T11:12:34;95815.53;;;25.07;38.51
79077;BME280;68477;42.698;23.342;2023-09-08T11:15:02;95817.81;;;27.24;37.14
79077;BME280;68477;42.698;23.342;2023-09-08T11:17:33;95817.38;;;26.58;35.27
79077;BME280;68477;42.698;23.342;2023-09-08T11:20:00;95815.69;;;25.39;37.51
79077;BME280;68477;42.698;23.342;2023-09-08T11:22:26;95821.50;;;25.74;38.01
79077;BME280;68477;42.698;23.342;2023-09-08T11:24:53;95806.50;;;27.32;34.81
79077;BME280;68477;42.698;23.342;2023-09-08T11:27:19;95808.47;;;26.52;36.06
79077;BME280;68477;42.698;23.342;2023-09-08T11:29:46;95806.13;;;27.66;35.36
79077;BME280;68477;42.698;23.342;2023-09-08T11:32:13;95803.13;;;27.05;34.94
79077;BME280;68477;42.698;23.342;2023-09-08T11:34:39;95805.47;;;25.90;36.77
79077;BME280;68477;42.698;23.342;2023-09-08T11:37:18;95805.66;;;26.10;37.25
79077;BME280;68477;42.698;23.342;2023-09-08T11:39:44;95800.44;;;25.98;36.86
79077;BME280;68477;42.698;23.342;2023-09-08T11:42:12;95800.25;;;26.10;36.63
79077;BME280;68477;42.698;23.342;2023-09-08T11:44:38;95784.13;;;27.42;34.19
79077;BME280;68477;42.698;23.342;2023-09-08T11:47:06;95782.88;;;27.85;33.26
79077;BME280;68477;42.698;23.342;2023-09-08T11:49:37;95783.22;;;28.24;32.46
79077;BME280;68477;42.698;23.342;2023-09-08T11:52:03;95778.53;;;27.64;33.65
79077;BME280;68477;42.698;23.342;2023-09-08T11:54:31;95772.66;;;27.09;34.29
79077;BME280;68477;42.698;23.342;2023-09-08T11:56:59;95773.00;;;27.33;33.43
79077;BME280;68477;42.698;23.342;2023-09-08T11:59:27;95781.31;;;28.60;31.92
79077;BME280;68477;42.698;23.342;2023-09-08T12:01:53;95771.78;;;28.98;32.30
79077;BME280;68477;42.698;23.342;2023-09-08T12:04:19;95772.69;;;29.43;30.13
79077;BME280;68477;42.698;23.342;2023-09-08T12:06:46;95771.81;;;27.92;32.33
79077;BME280;68477;42.698;23.342;2023-09-08T12:09:12;95766.72;;;29.41;30.19
79077;BME280;68477;42.698;23.342;2023-09-08T12:11:37;95766.56;;;29.77;29.65
79077;BME280;68477;42.698;23.342;2023-09-08T12:14:09;95768.06;;;28.28;30.78
79077;BME280;68477;42.698;23.342;2023-09-08T12:16:35;95755.59;;;28.68;30.72
79077;BME280;68477;42.698;23.342;2023-09-08T12:19:00;95763.31;;;29.75;29.41
79077;BME280;68477;42.698;23.342;2023-09-08T12:21:26;95759.94;;;27.98;31.36
79077;BME280;68477;42.698;23.342;2023-09-08T12:23:53;95759.38;;;27.96;31.84
79077;BME280;68477;42.698;23.342;2023-09-08T12:26:18;95756.16;;;29.40;29.63
79077;BME280;68477;42.698;23.342;2023-09-08T12:28:45;95748.81;;;28.70;30.91
79077;BME280;68477;42.698;23.342;2023-09-08T12:31:13;95750.16;;;28.78;30.48
79077;BME280;68477;42.698;23.342;2023-09-08T12:33:39;95739.72;;;29.21;30.75
79077;BME280;68477;42.698;23.342;2023-09-08T12:36:15;95740.59;;;29.66;30.37
79077;BME280;68477;42.698;23.342;2023-09-08T12:38:47;95742.94;;;29.28;30.87
79077;BME280;68477;42.698;23.342;2023-09-08T12:41:12;95737.72;;;28.67;31.14
79077;BME280;68477;42.698;23.342;2023-09-08T12:43:37;95735.34;;;28.45;32.13
79077;BME280;68477;42.698;23.342;2023-09-08T12:46:03;95739.09;;;28.03;32.18
79077;BME280;68477;42.698;23.342;2023-09-08T12:48:29;95733.88;;;27.51;32.81
79077;BME280;68477;42.698;23.342;2023-09-08T12:50:54;95742.56;;;28.90;31.23